Big Sky, Montana
Current Conditions -  °F | °C
As of 10:56 PM on Wednesday 26 Nov 2014 (Local Time) from KBZN Reporting Station
Clear Clear  
Wind Chill: 35°   Ceiling: Unl
Heat Index: 35°   Visibility: 10mi
Dew Point: 29°   Wind: 3mph
Humidity: 78%   Direction: 100°E
Pressure: 30.08"   Gusts: NA
Location:  45.29°N, 111.3°W
Report Text: KBZN 270556Z 10003KT 10SM CLR 02/M02 A3008 RMK AO2 SLP218 T00171017 10028 21039 56006 $
Loading
Personal Weather Stations






























Interactive Weather Map New forecast layout! Learn more

10-Day Weather Forecast

Advertisements
Track Severe Weather on mobile